sensor_id;sensor_type;location;lat;lon;timestamp;pressure;altitude;pressure_sealevel;temperature;humidity
44309;BME280;30022;55.846;37.340;2022-11-18T00:00:18;46624.13;;;-143.51;20.18
44309;BME280;30022;55.846;37.340;2022-11-18T00:02:44;46645.84;;;-143.51;20.42
44309;BME280;30022;55.846;37.340;2022-11-18T00:05:09;46661.63;;;-143.51;20.24
44309;BME280;30022;55.846;37.340;2022-11-18T00:07:35;46630.03;;;-143.51;20.27
44309;BME280;30022;55.846;37.340;2022-11-18T00:10:00;46632.03;;;-143.51;20.50
44309;BME280;30022;55.846;37.340;2022-11-18T00:12:30;46639.91;;;-143.51;20.00
44309;BME280;30022;55.846;37.340;2022-11-18T00:15:15;46665.59;;;-143.51;20.02
44309;BME280;30022;55.846;37.340;2022-11-18T00:17:44;46661.63;;;-143.51;19.85
44309;BME280;30022;55.846;37.340;2022-11-18T00:20:14;46645.84;;;-143.51;19.86
44309;BME280;30022;55.846;37.340;2022-11-18T00:22:46;46641.88;;;-143.51;19.91
44309;BME280;30022;55.846;37.340;2022-11-18T00:25:19;46679.41;;;-143.51;19.79
44309;BME280;30022;55.846;37.340;2022-11-18T00:27:46;46667.56;;;-143.51;19.84
44309;BME280;30022;55.846;37.340;2022-11-18T00:30:14;46655.72;;;-143.51;19.95
44309;BME280;30022;55.846;37.340;2022-11-18T00:35:53;46653.75;;;-143.51;20.02
44309;BME280;30022;55.846;37.340;2022-11-18T00:38:25;46643.88;;;-143.51;19.85
44309;BME280;30022;55.846;37.340;2022-11-18T00:40:58;46653.75;;;-143.51;19.90
44309;BME280;30022;55.846;37.340;2022-11-18T00:43:25;46635.97;;;-143.51;19.70
44309;BME280;30022;55.846;37.340;2022-11-18T00:45:51;46647.81;;;-143.51;19.71
44309;BME280;30022;55.846;37.340;2022-11-18T00:48:18;46677.44;;;-143.51;19.71
44309;BME280;30022;55.846;37.340;2022-11-18T00:50:50;46645.84;;;-143.51;19.85
44309;BME280;30022;55.846;37.340;2022-11-18T00:53:17;46661.63;;;-143.51;19.89
44309;BME280;30022;55.846;37.340;2022-11-18T00:55:43;46653.75;;;-143.51;19.79
44309;BME280;30022;55.846;37.340;2022-11-18T00:58:09;46637.94;;;-143.51;19.71
44309;BME280;30022;55.846;37.340;2022-11-18T01:00:49;46667.56;;;-143.51;19.89
44309;BME280;30022;55.846;37.340;2022-11-18T01:03:15;46634.00;;;-143.51;19.87
44309;BME280;30022;55.846;37.340;2022-11-18T01:05:40;46655.72;;;-143.51;19.77
44309;BME280;30022;55.846;37.340;2022-11-18T01:08:07;46635.97;;;-143.51;19.95
44309;BME280;30022;55.846;37.340;2022-11-18T01:10:34;46622.16;;;-143.51;19.93
44309;BME280;30022;55.846;37.340;2022-11-18T01:13:00;46608.31;;;-143.51;19.92
44309;BME280;30022;55.846;37.340;2022-11-18T01:15:48;46598.44;;;-143.51;19.96
44309;BME280;30022;55.846;37.340;2022-11-18T01:18:15;46675.47;;;-143.51;19.79
44309;BME280;30022;55.846;37.340;2022-11-18T01:20:40;46641.88;;;-143.51;19.88
44309;BME280;30022;55.846;37.340;2022-11-18T01:23:06;46626.09;;;-143.51;19.89
44309;BME280;30022;55.846;37.340;2022-11-18T01:25:33;46634.00;;;-143.51;19.74
44309;BME280;30022;55.846;37.340;2022-11-18T01:27:59;46626.09;;;-143.51;19.90
44309;BME280;30022;55.846;37.340;2022-11-18T01:30:25;46622.16;;;-143.51;19.90
44309;BME280;30022;55.846;37.340;2022-11-18T01:32:50;46630.03;;;-143.51;19.87
44309;BME280;30022;55.846;37.340;2022-11-18T01:35:16;46606.34;;;-143.51;20.01
44309;BME280;30022;55.846;37.340;2022-11-18T01:37:41;46616.22;;;-143.51;20.03
44309;BME280;30022;55.846;37.340;2022-11-18T01:40:08;46606.34;;;-143.51;20.05
44309;BME280;30022;55.846;37.340;2022-11-18T01:42:34;46598.44;;;-143.51;20.08
44309;BME280;30022;55.846;37.340;2022-11-18T01:45:02;46584.63;;;-143.51;19.98
44309;BME280;30022;55.846;37.340;2022-11-18T01:50:31;46634.00;;;-143.51;19.96
44309;BME280;30022;55.846;37.340;2022-11-18T01:52:59;46630.03;;;-143.51;19.66
44309;BME280;30022;55.846;37.340;2022-11-18T01:55:28;46618.19;;;-143.51;19.98
44309;BME280;30022;55.846;37.340;2022-11-18T01:58:21;46649.78;;;-143.51;19.83
44309;BME280;30022;55.846;37.340;2022-11-18T02:00:42;46584.63;;;-143.51;20.08
44309;BME280;30022;55.846;37.340;2022-11-18T02:03:08;46606.34;;;-143.51;19.97
44309;BME280;30022;55.846;37.340;2022-11-18T02:05:34;46606.34;;;-143.51;20.01
44309;BME280;30022;55.846;37.340;2022-11-18T02:08:00;46584.63;;;-143.51;20.21
44309;BME280;30022;55.846;37.340;2022-11-18T02:10:27;46590.53;;;-143.51;20.04
44309;BME280;30022;55.846;37.340;2022-11-18T02:12:53;46620.16;;;-143.51;20.00
44309;BME280;30022;55.846;37.340;2022-11-18T02:15:44;46588.56;;;-143.51;19.88
44309;BME280;30022;55.846;37.340;2022-11-18T02:20:45;46632.03;;;-143.51;19.72
44309;BME280;30022;55.846;37.340;2022-11-18T02:30:48;46657.69;;;-143.51;19.56
44309;BME280;30022;55.846;37.340;2022-11-18T02:33:26;46637.94;;;-143.51;19.57
44309;BME280;30022;55.846;37.340;2022-11-18T02:35:58;46677.44;;;-143.51;19.60
44309;BME280;30022;55.846;37.340;2022-11-18T02:38:29;46657.69;;;-143.51;19.42
44309;BME280;30022;55.846;37.340;2022-11-18T02:40:57;46641.88;;;-143.51;19.52
44309;BME280;30022;55.846;37.340;2022-11-18T02:43:25;46659.66;;;-143.51;19.46
44309;BME280;30022;55.846;37.340;2022-11-18T02:45:54;46665.59;;;-143.51;19.55
44309;BME280;30022;55.846;37.340;2022-11-18T02:48:23;46661.63;;;-143.51;19.62
44309;BME280;30022;55.846;37.340;2022-11-18T02:50:50;46649.78;;;-143.51;19.60
44309;BME280;30022;55.846;37.340;2022-11-18T02:53:18;46641.88;;;-143.51;19.52
44309;BME280;30022;55.846;37.340;2022-11-18T02:55:44;46610.28;;;-143.51;19.74
44309;BME280;30022;55.846;37.340;2022-11-18T02:58:11;46614.25;;;-143.51;19.97
44309;BME280;30022;55.846;37.340;2022-11-18T03:00:37;46610.28;;;-143.51;19.73
44309;BME280;30022;55.846;37.340;2022-11-18T03:03:23;46649.78;;;-143.51;19.75
44309;BME280;30022;55.846;37.340;2022-11-18T03:05:53;46647.81;;;-143.51;19.60
44309;BME280;30022;55.846;37.340;2022-11-18T03:08:24;46651.75;;;-143.51;19.78
44309;BME280;30022;55.846;37.340;2022-11-18T03:10:57;46655.72;;;-143.51;19.59
44309;BME280;30022;55.846;37.340;2022-11-18T03:13:31;46614.25;;;-143.51;19.70
44309;BME280;30022;55.846;37.340;2022-11-18T03:16:10;46612.28;;;-143.51;19.98
44309;BME280;30022;55.846;37.340;2022-11-18T03:23:34;46626.09;;;-143.51;20.03
44309;BME280;30022;55.846;37.340;2022-11-18T03:26:21;46590.53;;;-143.51;20.11
44309;BME280;30022;55.846;37.340;2022-11-18T03:31:19;46641.88;;;-143.51;19.94
44309;BME280;30022;55.846;37.340;2022-11-18T03:33:49;46566.84;;;-143.51;20.00
44309;BME280;30022;55.846;37.340;2022-11-18T03:36:16;46614.25;;;-143.51;20.00
44309;BME280;30022;55.846;37.340;2022-11-18T03:38:47;46616.22;;;-143.51;19.79
44309;BME280;30022;55.846;37.340;2022-11-18T03:41:15;46614.25;;;-143.51;19.99
44309;BME280;30022;55.846;37.340;2022-11-18T03:43:43;46639.91;;;-143.51;19.76
44309;BME280;30022;55.846;37.340;2022-11-18T03:46:15;46630.03;;;-143.51;19.98
44309;BME280;30022;55.846;37.340;2022-11-18T03:48:47;46628.06;;;-143.51;19.77
44309;BME280;30022;55.846;37.340;2022-11-18T03:51:16;46612.28;;;-143.51;20.01
44309;BME280;30022;55.846;37.340;2022-11-18T03:53:44;46602.41;;;-143.51;20.07
44309;BME280;30022;55.846;37.340;2022-11-18T03:56:12;46604.38;;;-143.51;19.95
44309;BME280;30022;55.846;37.340;2022-11-18T03:58:42;46606.34;;;-143.51;19.85
44309;BME280;30022;55.846;37.340;2022-11-18T04:01:12;46602.41;;;-143.51;19.90
44309;BME280;30022;55.846;37.340;2022-11-18T04:03:39;46641.88;;;-143.51;19.90
44309;BME280;30022;55.846;37.340;2022-11-18T04:06:08;46602.41;;;-143.51;19.85
44309;BME280;30022;55.846;37.340;2022-11-18T04:08:38;46594.50;;;-143.51;20.05
44309;BME280;30022;55.846;37.340;2022-11-18T04:11:10;46606.34;;;-143.51;20.11
44309;BME280;30022;55.846;37.340;2022-11-18T04:13:58;46574.75;;;-143.51;20.26
44309;BME280;30022;55.846;37.340;2022-11-18T04:16:24;46600.41;;;-143.51;20.26
44309;BME280;30022;55.846;37.340;2022-11-18T04:18:49;46580.66;;;-143.51;20.32
44309;BME280;30022;55.846;37.340;2022-11-18T04:21:15;46590.53;;;-143.51;20.03
44309;BME280;30022;55.846;37.340;2022-11-18T04:23:40;46630.03;;;-143.51;20.03
44309;BME280;30022;55.846;37.340;2022-11-18T04:26:06;46620.16;;;-143.51;20.05
44309;BME280;30022;55.846;37.340;2022-11-18T04:28:32;46655.72;;;-143.51;19.77
44309;BME280;30022;55.846;37.340;2022-11-18T04:30:57;46604.38;;;-143.51;19.98
44309;BME280;30022;55.846;37.340;2022-11-18T04:33:23;46634.00;;;-143.51;19.88
44309;BME280;30022;55.846;37.340;2022-11-18T04:35:49;46620.16;;;-143.51;19.83
44309;BME280;30022;55.846;37.340;2022-11-18T04:38:14;46622.16;;;-143.51;19.93
44309;BME280;30022;55.846;37.340;2022-11-18T04:40:40;46612.28;;;-143.51;19.92
44309;BME280;30022;55.846;37.340;2022-11-18T04:43:06;46622.16;;;-143.51;19.76
44309;BME280;30022;55.846;37.340;2022-11-18T04:45:31;46626.09;;;-143.51;19.77
44309;BME280;30022;55.846;37.340;2022-11-18T04:47:57;46643.88;;;-143.51;19.73
44309;BME280;30022;55.846;37.340;2022-11-18T04:50:23;46634.00;;;-143.51;19.78
44309;BME280;30022;55.846;37.340;2022-11-18T04:52:48;46622.16;;;-143.51;19.90
44309;BME280;30022;55.846;37.340;2022-11-18T04:55:14;46643.88;;;-143.51;19.67
44309;BME280;30022;55.846;37.340;2022-11-18T04:57:40;46659.66;;;-143.51;19.69
44309;BME280;30022;55.846;37.340;2022-11-18T05:00:05;46635.97;;;-143.51;19.55
44309;BME280;30022;55.846;37.340;2022-11-18T05:02:46;46653.75;;;-143.51;19.58
44309;BME280;30022;55.846;37.340;2022-11-18T05:05:12;46630.03;;;-143.51;19.63
44309;BME280;30022;55.846;37.340;2022-11-18T05:07:42;46618.19;;;-143.51;19.82
44309;BME280;30022;55.846;37.340;2022-11-18T05:10:07;46586.59;;;-143.51;19.72
44309;BME280;30022;55.846;37.340;2022-11-18T05:12:33;46624.13;;;-143.51;19.95
44309;BME280;30022;55.846;37.340;2022-11-18T05:15:18;46602.41;;;-143.51;19.50
44309;BME280;30022;55.846;37.340;2022-11-18T05:17:44;46632.03;;;-143.51;19.60
44309;BME280;30022;55.846;37.340;2022-11-18T05:20:10;46679.41;;;-143.51;19.54
44309;BME280;30022;55.846;37.340;2022-11-18T05:22:36;46657.69;;;-143.51;19.47
44309;BME280;30022;55.846;37.340;2022-11-18T05:25:02;46647.81;;;-143.51;19.52
44309;BME280;30022;55.846;37.340;2022-11-18T05:27:29;46677.44;;;-143.51;19.44
44309;BME280;30022;55.846;37.340;2022-11-18T05:29:54;46641.88;;;-143.51;19.64
44309;BME280;30022;55.846;37.340;2022-11-18T05:32:20;46628.06;;;-143.51;19.60
44309;BME280;30022;55.846;37.340;2022-11-18T05:34:45;46634.00;;;-143.51;19.65
44309;BME280;30022;55.846;37.340;2022-11-18T05:37:11;46663.63;;;-143.51;19.56
44309;BME280;30022;55.846;37.340;2022-11-18T05:39:37;46669.53;;;-143.51;19.57
44309;BME280;30022;55.846;37.340;2022-11-18T05:42:02;46641.88;;;-143.51;19.61
44309;BME280;30022;55.846;37.340;2022-11-18T05:44:47;46653.75;;;-143.51;19.55
44309;BME280;30022;55.846;37.340;2022-11-18T05:47:13;46630.03;;;-143.51;19.55
44309;BME280;30022;55.846;37.340;2022-11-18T05:49:38;46641.88;;;-143.51;19.40
44309;BME280;30022;55.846;37.340;2022-11-18T05:52:04;46639.91;;;-143.51;19.59
44309;BME280;30022;55.846;37.340;2022-11-18T05:54:30;46614.25;;;-143.51;19.77
44309;BME280;30022;55.846;37.340;2022-11-18T05:56:56;46655.72;;;-143.51;19.64
44309;BME280;30022;55.846;37.340;2022-11-18T05:59:21;46645.84;;;-143.51;19.60
44309;BME280;30022;55.846;37.340;2022-11-18T06:01:58;46635.97;;;-143.51;19.58
44309;BME280;30022;55.846;37.340;2022-11-18T06:04:39;46639.91;;;-143.51;19.63
44309;BME280;30022;55.846;37.340;2022-11-18T06:10:12;46635.97;;;-143.51;19.65
44309;BME280;30022;55.846;37.340;2022-11-18T06:12:41;46647.81;;;-143.51;19.54
44309;BME280;30022;55.846;37.340;2022-11-18T06:15:10;46655.72;;;-143.51;19.66
44309;BME280;30022;55.846;37.340;2022-11-18T06:17:41;46647.81;;;-143.51;19.68
44309;BME280;30022;55.846;37.340;2022-11-18T06:20:09;46639.91;;;-143.51;19.47
44309;BME280;30022;55.846;37.340;2022-11-18T06:22:35;46610.28;;;-143.51;19.82
44309;BME280;30022;55.846;37.340;2022-11-18T06:25:01;46618.19;;;-143.51;19.65
44309;BME280;30022;55.846;37.340;2022-11-18T06:27:28;46632.03;;;-143.51;19.77
44309;BME280;30022;55.846;37.340;2022-11-18T06:29:55;46620.16;;;-143.51;19.74
44309;BME280;30022;55.846;37.340;2022-11-18T06:32:21;46624.13;;;-143.51;19.71
44309;BME280;30022;55.846;37.340;2022-11-18T06:34:46;46641.88;;;-143.51;19.76
44309;BME280;30022;55.846;37.340;2022-11-18T06:37:13;46669.53;;;-143.51;19.73
44309;BME280;30022;55.846;37.340;2022-11-18T06:39:38;46610.28;;;-143.51;19.84
44309;BME280;30022;55.846;37.340;2022-11-18T06:42:04;46655.72;;;-143.51;19.64
44309;BME280;30022;55.846;37.340;2022-11-18T06:44:30;46637.94;;;-143.51;19.50
44309;BME280;30022;55.846;37.340;2022-11-18T06:46:55;46659.66;;;-143.51;19.54
44309;BME280;30022;55.846;37.340;2022-11-18T06:49:22;46649.78;;;-143.51;19.63
44309;BME280;30022;55.846;37.340;2022-11-18T06:51:47;46608.31;;;-143.51;19.85
44309;BME280;30022;55.846;37.340;2022-11-18T06:54:13;46624.13;;;-143.51;19.98
44309;BME280;30022;55.846;37.340;2022-11-18T06:56:39;46628.06;;;-143.51;19.66
44309;BME280;30022;55.846;37.340;2022-11-18T06:59:04;46637.94;;;-143.51;19.94
44309;BME280;30022;55.846;37.340;2022-11-18T07:01:32;46647.81;;;-143.51;19.66
44309;BME280;30022;55.846;37.340;2022-11-18T07:03:58;46622.16;;;-143.51;20.01
44309;BME280;30022;55.846;37.340;2022-11-18T07:06:25;46610.28;;;-143.51;19.78
44309;BME280;30022;55.846;37.340;2022-11-18T07:08:51;46643.88;;;-143.51;19.89
44309;BME280;30022;55.846;37.340;2022-11-18T07:11:18;46616.22;;;-143.51;19.69
44309;BME280;30022;55.846;37.340;2022-11-18T07:13:45;46641.88;;;-143.51;19.69
44309;BME280;30022;55.846;37.340;2022-11-18T07:16:12;46630.03;;;-143.51;19.79
44309;BME280;30022;55.846;37.340;2022-11-18T07:18:38;46645.84;;;-143.51;19.71
44309;BME280;30022;55.846;37.340;2022-11-18T07:21:09;46626.09;;;-143.51;19.65
44309;BME280;30022;55.846;37.340;2022-11-18T07:23:36;46610.28;;;-143.51;19.72
44309;BME280;30022;55.846;37.340;2022-11-18T07:26:02;46602.41;;;-143.51;19.92
44309;BME280;30022;55.846;37.340;2022-11-18T07:28:27;46643.88;;;-143.51;19.72
44309;BME280;30022;55.846;37.340;2022-11-18T07:31:02;46663.63;;;-143.51;19.68
44309;BME280;30022;55.846;37.340;2022-11-18T07:33:28;46653.75;;;-143.51;19.69
44309;BME280;30022;55.846;37.340;2022-11-18T07:35:54;46665.59;;;-143.51;19.84
44309;BME280;30022;55.846;37.340;2022-11-18T07:38:20;46647.81;;;-143.51;19.44
44309;BME280;30022;55.846;37.340;2022-11-18T07:40:46;46669.53;;;-143.51;19.63
44309;BME280;30022;55.846;37.340;2022-11-18T07:43:12;46677.44;;;-143.51;19.70
44309;BME280;30022;55.846;37.340;2022-11-18T07:45:38;46649.78;;;-143.51;19.71
44309;BME280;30022;55.846;37.340;2022-11-18T07:48:03;46634.00;;;-143.51;19.62
44309;BME280;30022;55.846;37.340;2022-11-18T07:50:29;46637.94;;;-143.51;19.76
44309;BME280;30022;55.846;37.340;2022-11-18T07:52:56;46651.75;;;-143.51;19.84
44309;BME280;30022;55.846;37.340;2022-11-18T07:55:23;46687.31;;;-143.51;19.58
44309;BME280;30022;55.846;37.340;2022-11-18T07:57:48;46665.59;;;-143.51;19.55
44309;BME280;30022;55.846;37.340;2022-11-18T08:00:14;46637.94;;;-143.51;19.64
44309;BME280;30022;55.846;37.340;2022-11-18T08:02:40;46635.97;;;-143.51;19.57
44309;BME280;30022;55.846;37.340;2022-11-18T08:05:07;46673.50;;;-143.51;19.72
44309;BME280;30022;55.846;37.340;2022-11-18T08:07:33;46675.47;;;-143.51;19.84
44309;BME280;30022;55.846;37.340;2022-11-18T08:09:59;46748.53;;;-143.51;19.65
44309;BME280;30022;55.846;37.340;2022-11-18T08:12:24;46669.53;;;-143.51;19.49
44309;BME280;30022;55.846;37.340;2022-11-18T08:14:50;46671.50;;;-143.51;19.72
44309;BME280;30022;55.846;37.340;2022-11-18T08:17:16;46637.94;;;-143.51;19.81
44309;BME280;30022;55.846;37.340;2022-11-18T08:19:42;46651.75;;;-143.51;19.78
44309;BME280;30022;55.846;37.340;2022-11-18T08:22:07;46639.91;;;-143.51;19.89
44309;BME280;30022;55.846;37.340;2022-11-18T08:24:34;46649.78;;;-143.51;19.90
44309;BME280;30022;55.846;37.340;2022-11-18T08:27:03;46628.06;;;-143.51;19.76
44309;BME280;30022;55.846;37.340;2022-11-18T08:29:29;46659.66;;;-143.51;19.95
44309;BME280;30022;55.846;37.340;2022-11-18T08:31:55;46634.00;;;-143.51;20.03
44309;BME280;30022;55.846;37.340;2022-11-18T08:34:20;46667.56;;;-143.51;19.80
44309;BME280;30022;55.846;37.340;2022-11-18T08:36:47;46649.78;;;-143.51;19.95
44309;BME280;30022;55.846;37.340;2022-11-18T08:39:12;46649.78;;;-143.51;19.75
44309;BME280;30022;55.846;37.340;2022-11-18T08:41:40;46645.84;;;-143.51;19.71
44309;BME280;30022;55.846;37.340;2022-11-18T08:44:07;46661.63;;;-143.51;19.78
44309;BME280;30022;55.846;37.340;2022-11-18T08:46:34;46661.63;;;-143.51;19.85
44309;BME280;30022;55.846;37.340;2022-11-18T08:49:00;46657.69;;;-143.51;19.78
44309;BME280;30022;55.846;37.340;2022-11-18T08:51:26;46645.84;;;-143.51;19.79
44309;BME280;30022;55.846;37.340;2022-11-18T08:53:52;46671.50;;;-143.51;19.70
44309;BME280;30022;55.846;37.340;2022-11-18T08:56:18;46703.13;;;-143.51;19.78
44309;BME280;30022;55.846;37.340;2022-11-18T08:58:45;46661.63;;;-143.51;19.85
44309;BME280;30022;55.846;37.340;2022-11-18T09:01:10;46675.47;;;-143.51;19.76
44309;BME280;30022;55.846;37.340;2022-11-18T09:03:36;46673.50;;;-143.51;19.84
44309;BME280;30022;55.846;37.340;2022-11-18T09:08:33;46637.94;;;-143.51;19.70
44309;BME280;30022;55.846;37.340;2022-11-18T09:11:03;46655.72;;;-143.51;20.05
44309;BME280;30022;55.846;37.340;2022-11-18T09:13:29;46669.53;;;-143.51;20.12
44309;BME280;30022;55.846;37.340;2022-11-18T09:15:58;46657.69;;;-143.51;20.00
44309;BME280;30022;55.846;37.340;2022-11-18T09:18:24;46691.25;;;-143.51;19.93
44309;BME280;30022;55.846;37.340;2022-11-18T09:20:58;46675.47;;;-143.51;19.74
44309;BME280;30022;55.846;37.340;2022-11-18T09:23:23;46679.41;;;-143.51;19.64
44309;BME280;30022;55.846;37.340;2022-11-18T09:25:56;46637.94;;;-143.51;19.90
44309;BME280;30022;55.846;37.340;2022-11-18T09:28:22;46659.66;;;-143.51;19.81
44309;BME280;30022;55.846;37.340;2022-11-18T09:30:47;46659.66;;;-143.51;19.92
44309;BME280;30022;55.846;37.340;2022-11-18T09:33:13;46647.81;;;-143.51;19.81
44309;BME280;30022;55.846;37.340;2022-11-18T09:35:43;46683.38;;;-143.51;19.77
44309;BME280;30022;55.846;37.340;2022-11-18T09:38:09;46726.81;;;-143.51;19.83
44309;BME280;30022;55.846;37.340;2022-11-18T09:46:02;46673.50;;;-143.51;20.05
44309;BME280;30022;55.846;37.340;2022-11-18T09:48:48;46691.25;;;-143.51;19.92
44309;BME280;30022;55.846;37.340;2022-11-18T09:51:38;46649.78;;;-143.51;19.94
44309;BME280;30022;55.846;37.340;2022-11-18T09:54:07;46681.38;;;-143.51;19.74
44309;BME280;30022;55.846;37.340;2022-11-18T09:56:35;46677.44;;;-143.51;19.82
44309;BME280;30022;55.846;37.340;2022-11-18T09:59:01;46647.81;;;-143.51;19.82
44309;BME280;30022;55.846;37.340;2022-11-18T10:01:28;46639.91;;;-143.51;20.05
44309;BME280;30022;55.846;37.340;2022-11-18T10:03:54;46655.72;;;-143.51;19.98
44309;BME280;30022;55.846;37.340;2022-11-18T10:06:24;46630.03;;;-143.51;20.21
44309;BME280;30022;55.846;37.340;2022-11-18T10:11:24;46643.88;;;-143.51;20.07
44309;BME280;30022;55.846;37.340;2022-11-18T10:13:54;46661.63;;;-143.51;20.06
44309;BME280;30022;55.846;37.340;2022-11-18T10:16:41;46693.25;;;-143.51;19.95
44309;BME280;30022;55.846;37.340;2022-11-18T10:21:50;46679.41;;;-143.51;19.82
44309;BME280;30022;55.846;37.340;2022-11-18T10:24:23;46659.66;;;-143.51;20.05
44309;BME280;30022;55.846;37.340;2022-11-18T10:26:54;46687.31;;;-143.51;19.96
44309;BME280;30022;55.846;37.340;2022-11-18T10:29:22;46677.44;;;-143.51;19.82
44309;BME280;30022;55.846;37.340;2022-11-18T10:32:10;46693.25;;;-143.51;19.84
44309;BME280;30022;55.846;37.340;2022-11-18T10:34:44;46679.41;;;-143.51;19.68
44309;BME280;30022;55.846;37.340;2022-11-18T10:39:55;46699.16;;;-143.51;19.83
44309;BME280;30022;55.846;37.340;2022-11-18T10:44:50;46724.84;;;-143.51;19.84
44309;BME280;30022;55.846;37.340;2022-11-18T10:47:29;46689.28;;;-143.51;19.68
44309;BME280;30022;55.846;37.340;2022-11-18T10:49:59;46687.31;;;-143.51;20.00
44309;BME280;30022;55.846;37.340;2022-11-18T10:52:26;46675.47;;;-143.51;19.96
44309;BME280;30022;55.846;37.340;2022-11-18T10:57:45;46679.41;;;-143.51;19.66
44309;BME280;30022;55.846;37.340;2022-11-18T11:02:56;46713.00;;;-143.51;19.84
44309;BME280;30022;55.846;37.340;2022-11-18T11:05:22;46673.50;;;-143.51;19.77
44309;BME280;30022;55.846;37.340;2022-11-18T11:10:27;46701.13;;;-143.51;19.79
44309;BME280;30022;55.846;37.340;2022-11-18T11:12:58;46718.91;;;-143.51;19.84
44309;BME280;30022;55.846;37.340;2022-11-18T11:15:33;46695.22;;;-143.51;20.07
44309;BME280;30022;55.846;37.340;2022-11-18T11:18:22;46628.06;;;-143.51;20.01
44309;BME280;30022;55.846;37.340;2022-11-18T11:21:11;46634.00;;;-143.51;20.16
44309;BME280;30022;55.846;37.340;2022-11-18T11:23:52;46657.69;;;-143.51;20.02
44309;BME280;30022;55.846;37.340;2022-11-18T11:26:21;46671.50;;;-143.51;20.00
44309;BME280;30022;55.846;37.340;2022-11-18T11:28:58;46701.13;;;-143.51;20.19
44309;BME280;30022;55.846;37.340;2022-11-18T11:41:39;46675.47;;;-143.51;20.07
44309;BME280;30022;55.846;37.340;2022-11-18T11:49:20;46651.75;;;-143.51;20.06
44309;BME280;30022;55.846;37.340;2022-11-18T11:51:50;46634.00;;;-143.51;20.14
44309;BME280;30022;55.846;37.340;2022-11-18T11:54:32;46649.78;;;-143.51;20.15
44309;BME280;30022;55.846;37.340;2022-11-18T11:57:07;46645.84;;;-143.51;19.95
44309;BME280;30022;55.846;37.340;2022-11-18T12:04:50;46657.69;;;-143.51;19.98
44309;BME280;30022;55.846;37.340;2022-11-18T12:07:18;46651.75;;;-143.51;20.00
44309;BME280;30022;55.846;37.340;2022-11-18T12:12:36;46647.81;;;-143.51;20.08
44309;BME280;30022;55.846;37.340;2022-11-18T12:17:38;46641.88;;;-143.51;20.27
44309;BME280;30022;55.846;37.340;2022-11-18T12:23:09;46659.66;;;-143.51;20.20
44309;BME280;30022;55.846;37.340;2022-11-18T12:25:55;46669.53;;;-143.51;20.11
44309;BME280;30022;55.846;37.340;2022-11-18T12:28:31;46679.41;;;-143.51;20.29
44309;BME280;30022;55.846;37.340;2022-11-18T12:31:43;46691.25;;;-143.51;20.24
44309;BME280;30022;55.846;37.340;2022-11-18T12:33:54;46705.09;;;-143.51;20.11
44309;BME280;30022;55.846;37.340;2022-11-18T12:38:51;46669.53;;;-143.51;20.48
44309;BME280;30022;55.846;37.340;2022-11-18T12:44:25;46645.84;;;-143.51;20.72
44309;BME280;30022;55.846;37.340;2022-11-18T12:46:52;46645.84;;;-143.51;20.64
44309;BME280;30022;55.846;37.340;2022-11-18T12:51:51;46669.53;;;-143.51;20.37
44309;BME280;30022;55.846;37.340;2022-11-18T12:54:22;46618.19;;;-143.51;20.83
44309;BME280;30022;55.846;37.340;2022-11-18T12:56:52;46588.56;;;-143.51;21.11
44309;BME280;30022;55.846;37.340;2022-11-18T13:02:03;46637.94;;;-143.51;20.97
44309;BME280;30022;55.846;37.340;2022-11-18T13:04:30;46634.00;;;-143.51;20.86
44309;BME280;30022;55.846;37.340;2022-11-18T13:06:56;46630.03;;;-143.51;21.07
44309;BME280;30022;55.846;37.340;2022-11-18T13:09:25;46616.22;;;-143.51;21.04
44309;BME280;30022;55.846;37.340;2022-11-18T13:11:59;46637.94;;;-143.51;20.88
44309;BME280;30022;55.846;37.340;2022-11-18T13:14:27;46618.19;;;-143.51;20.92
44309;BME280;30022;55.846;37.340;2022-11-18T13:20:19;46641.88;;;-143.51;20.75
44309;BME280;30022;55.846;37.340;2022-11-18T13:22:52;46663.63;;;-143.51;20.74
44309;BME280;30022;55.846;37.340;2022-11-18T13:25:36;46653.75;;;-143.51;20.82
44309;BME280;30022;55.846;37.340;2022-11-18T13:28:06;46645.84;;;-143.51;20.76
44309;BME280;30022;55.846;37.340;2022-11-18T13:30:35;46669.53;;;-143.51;20.76
44309;BME280;30022;55.846;37.340;2022-11-18T13:33:08;46622.16;;;-143.51;20.72
44309;BME280;30022;55.846;37.340;2022-11-18T13:35:35;46641.88;;;-143.51;20.68
44309;BME280;30022;55.846;37.340;2022-11-18T13:38:04;46610.28;;;-143.51;20.63
44309;BME280;30022;55.846;37.340;2022-11-18T13:40:43;46665.59;;;-143.51;20.75
44309;BME280;30022;55.846;37.340;2022-11-18T13:43:35;46663.63;;;-143.51;20.67
44309;BME280;30022;55.846;37.340;2022-11-18T13:46:14;46661.63;;;-143.51;20.51
44309;BME280;30022;55.846;37.340;2022-11-18T13:48:47;46645.84;;;-143.51;20.53
44309;BME280;30022;55.846;37.340;2022-11-18T13:51:16;46634.00;;;-143.51;20.43
44309;BME280;30022;55.846;37.340;2022-11-18T13:53:42;46653.75;;;-143.51;20.71
44309;BME280;30022;55.846;37.340;2022-11-18T13:56:17;46647.81;;;-143.51;20.75
44309;BME280;30022;55.846;37.340;2022-11-18T14:06:26;46649.78;;;-143.51;20.70
44309;BME280;30022;55.846;37.340;2022-11-18T14:09:02;46667.56;;;-143.51;20.75
44309;BME280;30022;55.846;37.340;2022-11-18T14:11:36;46655.72;;;-143.51;20.62
44309;BME280;30022;55.846;37.340;2022-11-18T14:14:02;46677.44;;;-143.51;20.46
44309;BME280;30022;55.846;37.340;2022-11-18T14:16:37;46661.63;;;-143.51;20.43
44309;BME280;30022;55.846;37.340;2022-11-18T14:19:04;46695.22;;;-143.51;20.32
44309;BME280;30022;55.846;37.340;2022-11-18T14:21:31;46671.50;;;-143.51;20.35
44309;BME280;30022;55.846;37.340;2022-11-18T14:23:57;46665.59;;;-143.51;20.38